createdAt,value
2019-05-19T00:00:43.434Z,0.00
2019-05-19T00:01:43.400Z,0.00
2019-05-19T00:02:43.390Z,0.00
2019-05-19T00:03:43.374Z,0.00
2019-05-19T00:04:43.365Z,0.00
2019-05-19T00:05:43.352Z,0.00
2019-05-19T00:06:43.358Z,0.00
2019-05-19T00:07:43.335Z,0.00
2019-05-19T00:08:43.318Z,0.00
2019-05-19T00:09:43.305Z,0.00
2019-05-19T00:10:43.318Z,0.00
2019-05-19T00:11:43.304Z,0.00
2019-05-19T00:12:43.271Z,0.00
2019-05-19T00:13:43.259Z,0.00
2019-05-19T00:14:43.250Z,0.00
2019-05-19T00:15:43.237Z,0.00
2019-05-19T00:16:43.252Z,0.00
2019-05-19T00:17:43.242Z,0.00
2019-05-19T00:18:43.202Z,0.00
2019-05-19T00:19:43.192Z,0.00
2019-05-19T00:20:43.180Z,0.00
2019-05-19T00:21:43.167Z,0.00
2019-05-19T00:22:43.177Z,0.00
2019-05-19T00:23:43.144Z,0.00
2019-05-19T00:24:43.132Z,0.00
2019-05-19T00:25:43.123Z,0.00
2019-05-19T00:26:43.110Z,0.00
2019-05-19T00:27:43.102Z,0.00
2019-05-19T00:28:43.108Z,0.00
2019-05-19T00:29:43.075Z,0.00
2019-05-19T00:30:43.066Z,0.00
2019-05-19T00:31:43.055Z,0.00
2019-05-19T00:32:43.043Z,0.00
2019-05-19T00:33:43.050Z,0.00
2019-05-19T00:34:43.019Z,0.00
2019-05-19T00:35:43.007Z,0.00
2019-05-19T00:36:42.996Z,0.00
2019-05-19T00:37:42.986Z,0.00
2019-05-19T00:38:42.991Z,0.00
2019-05-19T00:39:42.959Z,0.00
2019-05-19T00:40:42.949Z,0.00
2019-05-19T00:41:42.941Z,0.00
2019-05-19T00:42:42.928Z,0.00
2019-05-19T00:43:42.940Z,0.00
2019-05-19T00:44:42.903Z,0.00
2019-05-19T00:45:42.892Z,0.00
2019-05-19T00:46:42.881Z,0.00
2019-05-19T00:47:42.872Z,0.00
2019-05-19T00:48:42.859Z,0.00
2019-05-19T00:49:42.878Z,0.00
2019-05-19T00:50:42.835Z,0.00
2019-05-19T00:51:42.824Z,0.00
2019-05-19T00:52:42.814Z,0.00
2019-05-19T00:53:42.802Z,0.00
2019-05-19T00:54:42.792Z,0.00
2019-05-19T00:55:42.797Z,0.00
2019-05-19T00:56:42.768Z,0.00
2019-05-19T00:57:42.757Z,0.00
2019-05-19T00:58:42.744Z,0.00
2019-05-19T00:59:42.735Z,0.00
2019-05-19T01:00:42.740Z,0.00
2019-05-19T01:01:42.710Z,0.00
2019-05-19T01:02:42.701Z,0.00
2019-05-19T01:03:42.688Z,0.00
2019-05-19T01:04:42.676Z,0.00
2019-05-19T01:05:42.684Z,0.00
2019-05-19T01:06:42.652Z,0.00
2019-05-19T01:07:42.642Z,0.00
2019-05-19T01:08:42.630Z,0.00
2019-05-19T01:09:42.620Z,0.00
2019-05-19T01:10:42.628Z,0.00
2019-05-19T01:11:42.596Z,0.00
2019-05-19T01:12:42.584Z,0.00
2019-05-19T01:13:42.574Z,0.00
2019-05-19T01:14:42.561Z,0.00
2019-05-19T01:15:42.569Z,0.00
2019-05-19T01:16:42.540Z,0.00
2019-05-19T01:17:42.529Z,0.00
2019-05-19T01:18:42.516Z,0.00
2019-05-19T01:19:55.222Z,0.00
2019-05-19T01:20:43.533Z,0.00
2019-05-19T01:21:42.484Z,0.00
2019-05-19T01:22:42.466Z,0.00
2019-05-19T01:23:42.456Z,0.00
2019-05-19T01:24:42.443Z,0.00
2019-05-19T01:25:42.434Z,0.00
2019-05-19T01:26:42.444Z,0.00
2019-05-19T01:27:42.407Z,0.00
2019-05-19T01:28:42.398Z,0.00
2019-05-19T01:29:42.386Z,0.00
2019-05-19T01:30:42.376Z,0.00
2019-05-19T01:31:42.364Z,0.00
2019-05-19T01:32:42.371Z,0.00
2019-05-19T01:33:42.341Z,0.00
2019-05-19T01:34:42.326Z,0.00
2019-05-19T01:35:42.317Z,0.00
2019-05-19T01:36:42.303Z,0.00
2019-05-19T01:37:42.322Z,0.00
2019-05-19T01:38:42.282Z,0.00
2019-05-19T01:39:42.271Z,0.00
2019-05-19T01:40:42.258Z,0.00
2019-05-19T01:41:42.253Z,0.00
2019-05-19T01:42:42.243Z,0.00
2019-05-19T01:43:42.245Z,0.00
2019-05-19T01:44:42.213Z,0.00
2019-05-19T01:45:42.202Z,0.00
2019-05-19T01:46:42.187Z,0.00
2019-05-19T01:47:42.177Z,0.00
2019-05-19T01:48:42.189Z,0.00
2019-05-19T01:49:42.154Z,0.00
2019-05-19T01:50:42.144Z,0.00
2019-05-19T01:51:42.130Z,0.00
2019-05-19T01:52:42.118Z,0.00
2019-05-19T01:53:42.108Z,0.00
2019-05-19T01:54:42.113Z,0.00
2019-05-19T01:55:42.086Z,0.00
2019-05-19T01:56:42.082Z,0.00
2019-05-19T01:57:42.060Z,0.00
2019-05-19T01:58:42.055Z,0.00
2019-05-19T01:59:42.061Z,0.00
2019-05-19T02:00:42.025Z,0.00
2019-05-19T02:01:42.018Z,0.00
2019-05-19T02:02:42.002Z,0.00
2019-05-19T02:03:41.994Z,0.00
2019-05-19T02:04:41.980Z,0.00
2019-05-19T02:05:41.986Z,0.00
2019-05-19T02:06:41.954Z,0.00
2019-05-19T02:07:41.962Z,0.00
2019-05-19T02:08:41.933Z,0.00
2019-05-19T02:09:41.920Z,0.00
2019-05-19T02:10:41.925Z,0.00
2019-05-19T02:11:41.935Z,0.00
2019-05-19T02:12:41.883Z,0.00
2019-05-19T02:13:41.875Z,0.00
2019-05-19T02:14:41.862Z,0.00
2019-05-19T02:15:41.868Z,0.00
2019-05-19T02:16:41.836Z,0.00
2019-05-19T02:17:41.827Z,0.00
2019-05-19T02:18:41.812Z,0.00
2019-05-19T02:19:41.807Z,0.00
2019-05-19T02:20:41.811Z,0.00
2019-05-19T02:21:41.779Z,0.00
2019-05-19T02:22:41.769Z,0.00
2019-05-19T02:23:41.753Z,0.00
2019-05-19T02:24:41.742Z,0.00
2019-05-19T02:25:41.727Z,0.00
2019-05-19T02:26:41.736Z,0.00
2019-05-19T02:27:41.707Z,0.00
2019-05-19T02:28:41.696Z,0.00
2019-05-19T02:29:41.679Z,0.00
2019-05-19T02:30:41.671Z,0.00
2019-05-19T02:31:41.678Z,0.00
2019-05-19T02:32:41.648Z,0.00
2019-05-19T02:33:41.632Z,0.00
2019-05-19T02:34:41.624Z,0.00
2019-05-19T02:35:41.608Z,0.00
2019-05-19T02:36:41.620Z,0.00
2019-05-19T02:37:41.590Z,0.00
2019-05-19T02:38:41.574Z,0.00
2019-05-19T02:39:41.566Z,0.00
2019-05-19T02:40:41.549Z,0.00
2019-05-19T02:41:41.540Z,0.00
2019-05-19T02:42:41.550Z,0.00
2019-05-19T02:43:41.516Z,0.00
2019-05-19T02:44:41.533Z,0.00
2019-05-19T02:45:41.501Z,0.00
2019-05-19T02:46:41.480Z,0.00
2019-05-19T02:47:41.489Z,0.00
2019-05-19T02:48:41.471Z,0.00
2019-05-19T02:49:41.447Z,0.00
2019-05-19T02:50:51.789Z,0.00
2019-05-19T02:51:42.421Z,0.00
2019-05-19T02:52:41.427Z,0.00
2019-05-19T02:53:41.399Z,0.00
2019-05-19T02:54:41.389Z,4.00
2019-05-19T02:55:41.374Z,0.00
2019-05-19T02:56:41.367Z,0.00
2019-05-19T02:57:41.372Z,4.00
2019-05-19T02:58:41.355Z,4.00
2019-05-19T02:59:41.332Z,4.00
2019-05-19T03:00:41.326Z,4.00
2019-05-19T03:01:41.303Z,4.00
2019-05-19T03:02:41.292Z,8.00
2019-05-19T03:03:41.297Z,4.00
2019-05-19T03:04:41.271Z,8.00
2019-05-19T03:05:41.258Z,8.00
2019-05-19T03:06:41.245Z,8.00
2019-05-19T03:07:41.231Z,12.00
2019-05-19T03:08:41.244Z,12.00
2019-05-19T03:09:41.215Z,16.00
2019-05-19T03:10:41.195Z,16.00
2019-05-19T03:11:41.183Z,16.00
2019-05-19T03:12:41.170Z,20.00
2019-05-19T03:13:41.182Z,20.00
2019-05-19T03:14:41.146Z,24.00
2019-05-19T03:15:41.137Z,28.00
2019-05-19T03:16:41.128Z,32.00
2019-05-19T03:17:41.110Z,36.00
2019-05-19T03:18:41.101Z,44.00
2019-05-19T03:19:41.116Z,52.00
2019-05-19T03:20:41.076Z,56.00
2019-05-19T03:21:41.071Z,64.00
2019-05-19T03:22:41.052Z,72.00
2019-05-19T03:23:41.040Z,80.00
2019-05-19T03:24:41.052Z,88.00
2019-05-19T03:25:44.068Z,100.00
2019-05-19T03:26:41.024Z,108.00
2019-05-19T03:27:40.994Z,120.00
2019-05-19T03:28:40.979Z,132.00
2019-05-19T03:29:40.968Z,144.00
2019-05-19T03:30:40.972Z,156.00
2019-05-19T03:31:40.950Z,168.00
2019-05-19T03:32:40.932Z,180.00
2019-05-19T03:33:40.922Z,196.00
2019-05-19T03:34:40.911Z,212.00
2019-05-19T03:35:40.925Z,228.00
2019-05-19T03:36:40.885Z,244.00
2019-05-19T03:37:40.873Z,264.00
2019-05-19T03:38:40.861Z,284.00
2019-05-19T03:39:40.858Z,304.00
2019-05-19T03:40:40.837Z,328.00
2019-05-19T03:41:40.847Z,352.00
2019-05-19T03:42:40.814Z,376.00
2019-05-19T03:43:40.799Z,404.00
2019-05-19T03:44:40.810Z,428.00
2019-05-19T03:45:40.777Z,460.00
2019-05-19T03:46:40.791Z,492.00
2019-05-19T03:47:40.758Z,524.00
2019-05-19T03:48:40.742Z,564.00
2019-05-19T03:49:40.733Z,600.00
2019-05-19T03:50:40.733Z,644.00
2019-05-19T03:51:40.727Z,688.00
2019-05-19T03:52:40.696Z,732.00
2019-05-19T03:53:40.685Z,780.00
2019-05-19T03:54:40.748Z,832.00
2019-05-19T03:55:40.662Z,884.00
2019-05-19T03:56:40.668Z,936.00
2019-05-19T03:57:40.637Z,988.00
2019-05-19T03:58:40.706Z,1048.00
2019-05-19T03:59:40.625Z,1100.00
2019-05-19T04:00:40.601Z,1156.00
2019-05-19T04:01:40.608Z,1204.00
2019-05-19T04:02:40.576Z,1256.00
2019-05-19T04:03:40.570Z,1300.00
2019-05-19T04:04:40.555Z,1340.00
2019-05-19T04:05:40.564Z,1388.00
2019-05-19T04:06:40.535Z,1424.00
2019-05-19T04:07:40.537Z,1464.00
2019-05-19T04:08:40.508Z,1504.00
2019-05-19T04:09:40.494Z,1544.00
2019-05-19T04:10:40.489Z,1588.00
2019-05-19T04:11:40.471Z,1636.00
2019-05-19T04:12:40.484Z,1692.00
2019-05-19T04:13:40.450Z,1748.00
2019-05-19T04:14:40.437Z,1808.00
2019-05-19T04:15:40.447Z,1876.00
2019-05-19T04:16:40.413Z,1940.00
2019-05-19T04:17:40.403Z,2004.00
2019-05-19T04:18:40.408Z,2056.00
2019-05-19T04:19:40.379Z,2104.00
2019-05-19T04:20:40.365Z,2152.00
2019-05-19T04:21:48.644Z,2196.00
2019-05-19T04:22:41.342Z,2232.00
2019-05-19T04:23:40.349Z,2260.00
2019-05-19T04:24:40.319Z,2288.00
2019-05-19T04:25:40.306Z,2304.00
2019-05-19T04:26:40.294Z,2320.00
2019-05-19T04:27:40.282Z,2328.00
2019-05-19T04:28:40.291Z,2332.00
2019-05-19T04:29:40.261Z,2340.00
2019-05-19T04:30:40.247Z,2356.00
2019-05-19T04:31:40.236Z,2384.00
2019-05-19T04:32:40.223Z,2432.00
2019-05-19T04:33:40.230Z,2496.00
2019-05-19T04:34:40.199Z,2568.00
2019-05-19T04:35:40.198Z,2508.00
2019-05-19T04:36:40.184Z,2604.00
2019-05-19T04:37:40.183Z,2608.00
2019-05-19T04:38:40.180Z,2948.00
2019-05-19T04:39:40.153Z,3084.00
2019-05-19T04:40:40.144Z,3220.00
2019-05-19T04:41:40.456Z,3352.00
2019-05-19T04:42:40.103Z,3496.00
2019-05-19T04:43:40.092Z,3628.00
2019-05-19T04:44:40.102Z,3780.00
2019-05-19T04:45:40.076Z,3968.00
2019-05-19T04:46:40.057Z,4136.00
2019-05-19T04:47:40.043Z,4296.00
2019-05-19T04:48:40.031Z,4496.00
2019-05-19T04:49:40.040Z,4696.00
2019-05-19T04:50:40.007Z,4904.00
2019-05-19T04:51:40.002Z,5112.00
2019-05-19T04:52:39.986Z,5316.00
2019-05-19T04:53:39.975Z,5468.00
2019-05-19T04:54:39.963Z,5624.00
2019-05-19T04:55:39.971Z,5748.00
2019-05-19T04:56:39.946Z,5876.00
2019-05-19T04:57:39.931Z,6032.00
2019-05-19T04:58:39.916Z,6200.00
2019-05-19T04:59:39.903Z,6336.00
2019-05-19T05:00:39.913Z,6420.00
2019-05-19T05:01:39.882Z,6528.00
2019-05-19T05:02:39.873Z,6688.00
2019-05-19T05:03:39.859Z,6828.00
2019-05-19T05:04:39.847Z,6948.00
2019-05-19T05:05:39.869Z,7056.00
2019-05-19T05:06:39.824Z,7092.00
2019-05-19T05:07:39.827Z,7136.00
2019-05-19T05:08:39.801Z,7156.00
2019-05-19T05:09:39.788Z,7168.00
2019-05-19T05:10:39.797Z,7176.00
2019-05-19T05:11:39.765Z,6512.00
2019-05-19T05:12:39.754Z,6788.00
2019-05-19T05:13:39.743Z,7124.00
2019-05-19T05:14:39.731Z,7140.00
2019-05-19T05:15:39.738Z,7180.00
2019-05-19T05:16:39.708Z,7232.00
2019-05-19T05:17:39.698Z,7312.00
2019-05-19T05:18:39.685Z,7412.00
2019-05-19T05:19:39.676Z,7492.00
2019-05-19T05:20:39.685Z,7560.00
2019-05-19T05:21:39.677Z,7604.00
2019-05-19T05:22:39.639Z,7680.00
2019-05-19T05:23:39.632Z,7740.00
2019-05-19T05:24:39.618Z,7808.00
2019-05-19T05:25:39.626Z,7860.00
2019-05-19T05:26:39.596Z,7880.00
2019-05-19T05:27:39.582Z,7920.00
2019-05-19T05:28:39.574Z,7900.00
2019-05-19T05:29:39.560Z,7872.00
2019-05-19T05:30:39.588Z,7844.00
2019-05-19T05:31:39.534Z,7768.00
2019-05-19T05:32:39.523Z,7724.00
2019-05-19T05:33:39.513Z,7632.00
2019-05-19T05:34:39.503Z,7532.00
2019-05-19T05:35:39.510Z,7408.00
2019-05-19T05:36:39.499Z,7212.00
2019-05-19T05:37:39.466Z,7020.00
2019-05-19T05:38:39.457Z,7028.00
2019-05-19T05:39:39.442Z,7052.00
2019-05-19T05:40:39.433Z,6960.00
2019-05-19T05:41:39.440Z,6912.00
2019-05-19T05:42:39.412Z,6824.00
2019-05-19T05:43:39.398Z,6748.00
2019-05-19T05:44:39.386Z,6704.00
2019-05-19T05:45:39.374Z,6664.00
2019-05-19T05:46:39.383Z,6620.00
2019-05-19T05:47:39.361Z,6544.00
2019-05-19T05:48:39.343Z,5964.00
2019-05-19T05:49:39.355Z,5984.00
2019-05-19T05:50:39.316Z,6284.00
2019-05-19T05:51:39.307Z,6304.00
2019-05-19T05:52:39.356Z,6360.00
2019-05-19T05:53:39.334Z,6440.00
2019-05-19T05:54:39.273Z,6536.00
2019-05-19T05:55:39.261Z,6656.00
2019-05-19T05:56:39.250Z,6788.00
2019-05-19T05:57:39.258Z,6928.00
2019-05-19T05:58:39.230Z,7076.00
2019-05-19T05:59:39.212Z,7236.00
2019-05-19T06:00:39.202Z,7408.00
2019-05-19T06:01:39.195Z,7580.00
2019-05-19T06:02:39.184Z,7760.00
2019-05-19T06:03:39.185Z,7940.00
2019-05-19T06:04:39.158Z,8128.00
2019-05-19T06:05:39.149Z,8308.00
2019-05-19T06:06:39.133Z,8488.00
2019-05-19T06:07:39.123Z,8668.00
2019-05-19T06:08:39.128Z,8840.00
2019-05-19T06:09:39.098Z,9020.00
2019-05-19T06:10:39.087Z,9212.00
2019-05-19T06:11:39.093Z,9396.00
2019-05-19T06:12:39.062Z,9588.00
2019-05-19T06:13:39.078Z,9800.00
2019-05-19T06:14:39.044Z,10088.00
2019-05-19T06:15:39.029Z,10492.00
2019-05-19T06:16:39.016Z,10796.00
2019-05-19T06:17:39.004Z,11084.00
2019-05-19T06:18:39.014Z,11336.00
2019-05-19T06:19:38.981Z,11672.00
2019-05-19T06:20:38.992Z,11840.00
2019-05-19T06:21:38.959Z,12180.00
2019-05-19T06:22:54.606Z,12372.00
2019-05-19T06:23:39.954Z,12260.00
2019-05-19T06:24:38.924Z,12520.00
2019-05-19T06:25:38.912Z,12552.00
2019-05-19T06:26:38.903Z,12500.00
2019-05-19T06:27:38.888Z,12660.00
2019-05-19T06:28:38.894Z,12296.00
2019-05-19T06:29:38.865Z,13144.00
2019-05-19T06:30:38.854Z,13984.00
2019-05-19T06:31:38.841Z,14520.00
2019-05-19T06:32:38.831Z,15324.00
2019-05-19T06:33:38.820Z,15884.00
2019-05-19T06:34:38.826Z,16576.00
2019-05-19T06:35:38.805Z,16736.00
2019-05-19T06:36:38.784Z,16960.00
2019-05-19T06:37:38.773Z,17216.00
2019-05-19T06:38:38.773Z,18240.00
2019-05-19T06:39:38.766Z,18880.00
2019-05-19T06:40:38.745Z,18880.00
2019-05-19T06:41:38.726Z,18912.00
2019-05-19T06:42:38.715Z,20000.00
2019-05-19T06:43:38.703Z,21856.00
2019-05-19T06:44:38.695Z,22144.00
2019-05-19T06:45:38.705Z,23840.00
2019-05-19T06:46:38.669Z,23232.00
2019-05-19T06:47:38.658Z,22720.00
2019-05-19T06:48:38.670Z,22208.00
2019-05-19T06:49:38.636Z,21984.00
2019-05-19T06:50:40.815Z,22176.00
2019-05-19T06:51:38.629Z,22880.00
2019-05-19T06:52:38.597Z,23616.00
2019-05-19T06:53:38.594Z,23968.00
2019-05-19T06:54:38.582Z,23968.00
2019-05-19T06:55:38.563Z,24672.00
2019-05-19T06:56:38.574Z,25696.00
2019-05-19T06:57:38.544Z,26848.00
2019-05-19T06:58:38.530Z,27104.00
2019-05-19T06:59:38.518Z,26720.00
2019-05-19T07:00:38.507Z,25344.00
2019-05-19T07:01:38.549Z,25408.00
2019-05-19T07:02:38.486Z,25856.00
2019-05-19T07:03:38.473Z,25024.00
2019-05-19T07:04:38.463Z,26112.00
2019-05-19T07:05:38.452Z,27104.00
2019-05-19T07:06:38.465Z,25600.00
2019-05-19T07:07:38.445Z,27680.00
2019-05-19T07:08:38.415Z,31680.00
2019-05-19T07:09:38.405Z,33312.00
2019-05-19T07:10:38.394Z,34016.00
2019-05-19T07:11:38.384Z,33376.00
2019-05-19T07:12:38.387Z,34016.00
2019-05-19T07:13:38.360Z,37504.00
2019-05-19T07:14:38.354Z,42400.00
2019-05-19T07:15:38.644Z,45248.00
2019-05-19T07:16:45.361Z,49280.00
2019-05-19T07:17:38.331Z,51680.00
2019-05-19T07:18:38.308Z,53184.00
2019-05-19T07:19:38.291Z,50080.00
2019-05-19T07:20:38.279Z,48864.00
2019-05-19T07:21:38.268Z,47232.00
2019-05-19T07:22:38.277Z,43936.00
2019-05-19T07:23:38.243Z,47392.00
2019-05-19T07:24:38.236Z,51360.00
2019-05-19T07:25:38.227Z,51776.00
2019-05-19T07:26:38.212Z,50176.00
2019-05-19T07:27:38.228Z,48960.00
2019-05-19T07:28:38.190Z,48800.00
2019-05-19T07:29:38.179Z,46784.00
2019-05-19T07:30:38.189Z,46016.00
2019-05-19T07:31:38.189Z,48032.00
2019-05-19T07:32:38.147Z,47264.00
2019-05-19T07:33:38.154Z,53472.00
2019-05-19T07:34:38.124Z,57024.00
2019-05-19T07:35:38.114Z,60960.00
2019-05-19T07:36:38.100Z,61952.00
2019-05-19T07:37:38.099Z,57408.00
2019-05-19T07:38:38.101Z,51008.00
2019-05-19T07:39:38.067Z,39136.00
2019-05-19T07:40:38.060Z,28640.00
2019-05-19T07:41:38.048Z,25216.00
2019-05-19T07:42:38.036Z,23712.00
2019-05-19T07:43:38.048Z,21984.00
2019-05-19T07:44:38.014Z,20352.00
2019-05-19T07:45:38.008Z,19968.00
2019-05-19T07:46:37.994Z,20320.00
2019-05-19T07:47:37.987Z,21216.00
2019-05-19T07:48:38.013Z,22112.00
2019-05-19T07:49:37.960Z,27136.00
2019-05-19T07:50:38.311Z,25056.00
2019-05-19T07:51:37.956Z,24480.00
2019-05-19T07:52:37.957Z,24064.00
2019-05-19T07:53:43.145Z,26688.00
2019-05-19T07:54:38.921Z,25344.00
2019-05-19T07:55:37.893Z,26912.00
2019-05-19T07:56:37.890Z,28384.00
2019-05-19T07:57:37.876Z,31456.00
2019-05-19T07:58:37.860Z,32224.00
2019-05-19T07:59:37.869Z,31264.00
2019-05-19T08:00:37.838Z,31040.00
2019-05-19T08:01:37.833Z,33536.00
2019-05-19T08:02:37.820Z,36704.00
2019-05-19T08:03:37.848Z,38528.00
2019-05-19T08:04:37.794Z,39104.00
2019-05-19T08:05:37.806Z,39232.00
2019-05-19T08:06:37.772Z,40640.00
2019-05-19T08:07:38.078Z,42208.00
2019-05-19T08:08:37.750Z,41408.00
2019-05-19T08:09:37.740Z,45056.00
2019-05-19T08:10:37.751Z,50272.00
2019-05-19T08:11:37.715Z,56352.00
2019-05-19T08:12:37.705Z,60384.00
2019-05-19T08:13:37.698Z,67008.00
2019-05-19T08:14:37.686Z,65408.00
2019-05-19T08:15:37.695Z,68000.00
2019-05-19T08:16:37.667Z,69792.00
2019-05-19T08:17:37.668Z,57472.00
2019-05-19T08:18:37.640Z,52224.00
2019-05-19T08:19:37.635Z,44064.00
2019-05-19T08:20:37.638Z,47168.00
2019-05-19T08:21:37.614Z,59808.00
2019-05-19T08:22:37.599Z,65184.00
2019-05-19T08:23:37.592Z,68768.00
2019-05-19T08:24:37.575Z,74080.00
2019-05-19T08:25:37.598Z,79360.00
2019-05-19T08:26:37.554Z,72992.00
2019-05-19T08:27:37.547Z,73792.00
2019-05-19T08:28:37.534Z,84480.00
2019-05-19T08:29:37.528Z,93152.00
2019-05-19T08:30:37.513Z,96224.00
2019-05-19T08:31:37.526Z,95168.00
2019-05-19T08:32:37.494Z,91360.00
2019-05-19T08:33:37.503Z,87136.00
2019-05-19T08:34:37.474Z,89856.00
2019-05-19T08:35:37.465Z,88832.00
2019-05-19T08:36:37.468Z,93728.00
2019-05-19T08:37:37.445Z,90144.00
2019-05-19T08:38:37.433Z,84352.00
2019-05-19T08:39:37.428Z,85952.00
2019-05-19T08:40:37.417Z,88160.00
2019-05-19T08:41:37.423Z,90272.00
2019-05-19T08:42:37.392Z,94976.00
2019-05-19T08:43:37.383Z,107840.00
2019-05-19T08:44:37.380Z,118816.00
2019-05-19T08:45:37.369Z,123424.00
2019-05-19T08:46:37.350Z,122496.00
2019-05-19T08:47:37.360Z,115744.00
2019-05-19T08:48:37.331Z,83168.00
2019-05-19T08:49:37.329Z,95136.00
2019-05-19T08:50:37.312Z,110784.00
2019-05-19T08:51:37.302Z,108832.00
2019-05-19T08:52:37.315Z,110592.00
2019-05-19T08:53:37.377Z,105984.00
2019-05-19T08:54:37.274Z,111168.00
2019-05-19T08:55:37.264Z,117472.00
2019-05-19T08:56:37.253Z,123136.00
2019-05-19T08:57:37.264Z,127104.00
2019-05-19T08:58:37.235Z,124096.00
2019-05-19T08:59:37.231Z,121856.00
2019-05-19T09:00:38.549Z,118720.00
2019-05-19T09:01:37.206Z,112288.00
2019-05-19T09:02:37.217Z,109408.00
2019-05-19T09:03:37.218Z,119008.00
2019-05-19T09:04:37.178Z,120320.00
2019-05-19T09:05:37.192Z,122368.00
2019-05-19T09:06:37.158Z,121120.00
2019-05-19T09:07:37.149Z,123904.00
2019-05-19T09:08:37.158Z,123328.00
2019-05-19T09:09:37.133Z,125248.00
2019-05-19T09:10:37.122Z,117280.00
2019-05-19T09:11:37.112Z,113696.00
2019-05-19T09:12:37.103Z,117568.00
2019-05-19T09:13:37.112Z,117184.00
2019-05-19T09:14:37.130Z,122848.00
2019-05-19T09:15:37.073Z,119200.00
2019-05-19T09:16:37.066Z,116352.00
2019-05-19T09:17:37.052Z,112160.00
2019-05-19T09:18:37.064Z,106624.00
2019-05-19T09:19:37.034Z,111712.00
2019-05-19T09:20:37.024Z,116512.00
2019-05-19T09:21:37.014Z,120320.00
2019-05-19T09:22:37.005Z,122304.00
2019-05-19T09:23:37.016Z,124256.00
2019-05-19T09:24:37.445Z,128544.00
2019-05-19T09:25:36.974Z,134304.00
2019-05-19T09:26:36.969Z,132128.00
2019-05-19T09:27:36.962Z,129888.00
2019-05-19T09:28:36.948Z,130784.00
2019-05-19T09:29:36.959Z,133056.00
2019-05-19T09:30:36.934Z,131808.00
2019-05-19T09:31:36.923Z,129184.00
2019-05-19T09:32:36.914Z,123808.00
2019-05-19T09:33:36.907Z,106048.00
2019-05-19T09:34:36.929Z,89504.00
2019-05-19T09:35:36.897Z,90464.00
2019-05-19T09:36:36.875Z,91392.00
2019-05-19T09:37:36.869Z,96736.00
2019-05-19T09:38:36.870Z,74880.00
2019-05-19T09:39:36.888Z,61184.00
2019-05-19T09:40:36.893Z,83136.00
2019-05-19T09:41:36.833Z,75072.00
2019-05-19T09:42:36.831Z,59008.00
2019-05-19T09:43:36.808Z,78624.00
2019-05-19T09:44:36.799Z,74720.00
2019-05-19T09:45:36.811Z,70496.00
2019-05-19T09:46:36.779Z,51936.00
2019-05-19T09:47:37.221Z,47456.00
2019-05-19T09:48:36.763Z,41600.00
2019-05-19T09:49:36.753Z,41216.00
2019-05-19T09:50:36.759Z,42112.00
2019-05-19T09:51:36.729Z,39936.00
2019-05-19T09:52:36.723Z,36736.00
2019-05-19T09:53:36.710Z,36960.00
2019-05-19T09:54:44.929Z,37440.00
2019-05-19T09:55:37.704Z,46624.00
2019-05-19T09:56:36.679Z,49984.00
2019-05-19T09:57:36.670Z,52832.00
2019-05-19T09:58:36.656Z,48256.00
2019-05-19T09:59:36.652Z,49728.00
2019-05-19T10:00:36.655Z,61760.00
2019-05-19T10:01:36.626Z,66656.00
2019-05-19T10:02:36.618Z,73216.00
2019-05-19T10:03:36.607Z,101632.00
2019-05-19T10:04:36.594Z,104544.00
2019-05-19T10:05:36.606Z,102304.00
2019-05-19T10:06:36.598Z,94624.00
2019-05-19T10:07:36.572Z,88416.00
2019-05-19T10:08:36.553Z,82208.00
2019-05-19T10:09:36.546Z,72128.00
2019-05-19T10:10:36.555Z,69440.00
2019-05-19T10:11:36.576Z,65088.00
2019-05-19T10:12:36.534Z,81728.00
2019-05-19T10:13:37.824Z,88224.00
2019-05-19T10:14:36.491Z,90464.00
2019-05-19T10:15:36.501Z,100992.00
2019-05-19T10:16:36.470Z,98016.00
2019-05-19T10:17:36.467Z,99200.00
2019-05-19T10:18:36.455Z,102688.00
2019-05-19T10:19:36.443Z,107296.00
2019-05-19T10:20:36.453Z,95008.00
2019-05-19T10:21:36.423Z,104032.00
2019-05-19T10:22:36.410Z,109248.00
2019-05-19T10:23:36.405Z,112320.00
2019-05-19T10:24:36.392Z,112800.00
2019-05-19T10:25:36.407Z,114496.00
2019-05-19T10:26:36.371Z,119040.00
2019-05-19T10:27:36.364Z,119072.00
2019-05-19T10:28:36.352Z,121504.00
2019-05-19T10:29:36.345Z,117888.00
2019-05-19T10:30:36.333Z,110752.00
2019-05-19T10:31:36.341Z,105056.00
2019-05-19T10:32:36.321Z,104288.00
2019-05-19T10:33:36.306Z,100896.00
2019-05-19T10:34:36.305Z,96000.00
2019-05-19T10:35:36.285Z,98272.00
2019-05-19T10:36:36.302Z,97632.00
2019-05-19T10:37:36.268Z,101056.00
2019-05-19T10:38:36.257Z,101824.00
2019-05-19T10:39:36.319Z,96032.00
2019-05-19T10:40:36.239Z,101568.00
2019-05-19T10:41:36.255Z,82656.00
2019-05-19T10:42:36.219Z,67520.00
2019-05-19T10:43:36.216Z,65664.00
2019-05-19T10:44:36.201Z,71136.00
2019-05-19T10:45:36.187Z,77760.00
2019-05-19T10:46:36.202Z,77728.00
2019-05-19T10:47:36.189Z,75072.00
2019-05-19T10:48:36.167Z,71424.00
2019-05-19T10:49:36.180Z,74080.00
2019-05-19T10:50:36.138Z,69024.00
2019-05-19T10:51:36.130Z,67392.00
2019-05-19T10:52:36.149Z,68032.00
2019-05-19T10:53:36.110Z,61792.00
2019-05-19T10:54:36.100Z,58240.00
2019-05-19T10:55:37.108Z,53664.00
2019-05-19T10:56:36.084Z,61504.00
2019-05-19T10:57:36.069Z,67744.00
2019-05-19T10:58:36.077Z,67488.00
2019-05-19T10:59:36.062Z,79328.00
2019-05-19T11:00:36.038Z,84768.00
2019-05-19T11:01:36.030Z,60704.00
2019-05-19T11:02:36.028Z,43232.00
2019-05-19T11:03:36.027Z,38240.00
2019-05-19T11:04:36.011Z,41504.00
2019-05-19T11:05:35.985Z,47648.00
2019-05-19T11:06:35.978Z,52768.00
2019-05-19T11:07:35.965Z,56736.00
2019-05-19T11:08:35.979Z,61152.00
2019-05-19T11:09:35.946Z,62176.00
2019-05-19T11:10:35.945Z,59840.00
2019-05-19T11:11:35.936Z,53632.00
2019-05-19T11:12:35.915Z,70688.00
2019-05-19T11:13:35.906Z,68672.00
2019-05-19T11:14:35.961Z,74464.00
2019-05-19T11:15:35.883Z,64480.00
2019-05-19T11:16:35.873Z,78208.00
2019-05-19T11:17:35.860Z,93440.00
2019-05-19T11:18:35.852Z,104288.00
2019-05-19T11:19:35.862Z,110112.00
2019-05-19T11:20:35.952Z,112224.00
2019-05-19T11:21:35.820Z,107232.00
2019-05-19T11:22:35.810Z,109664.00
2019-05-19T11:23:35.801Z,114016.00
2019-05-19T11:24:35.807Z,121152.00
2019-05-19T11:25:50.408Z,122176.00
2019-05-19T11:26:36.769Z,121952.00
2019-05-19T11:27:35.780Z,121664.00
2019-05-19T11:28:35.753Z,122496.00
2019-05-19T11:29:35.759Z,120384.00
2019-05-19T11:30:35.733Z,118912.00
2019-05-19T11:31:35.721Z,113536.00
2019-05-19T11:32:35.715Z,115840.00
2019-05-19T11:33:35.701Z,115200.00
2019-05-19T11:34:35.707Z,111008.00
2019-05-19T11:35:35.681Z,108704.00
2019-05-19T11:36:35.672Z,102624.00
2019-05-19T11:37:35.664Z,98688.00
2019-05-19T11:38:35.660Z,98368.00
2019-05-19T11:39:35.667Z,91136.00
2019-05-19T11:40:35.658Z,90784.00
2019-05-19T11:41:35.622Z,101120.00
2019-05-19T11:42:35.660Z,102720.00
2019-05-19T11:43:35.609Z,96672.00
2019-05-19T11:44:35.606Z,102272.00
2019-05-19T11:45:35.612Z,92288.00
2019-05-19T11:46:35.580Z,83168.00
2019-05-19T11:47:35.565Z,89824.00
2019-05-19T11:48:35.553Z,83680.00
2019-05-19T11:49:35.547Z,76160.00
2019-05-19T11:50:35.562Z,75808.00
2019-05-19T11:51:35.530Z,82720.00
2019-05-19T11:52:35.517Z,83040.00
2019-05-19T11:53:35.507Z,84992.00
2019-05-19T11:54:35.497Z,89696.00
2019-05-19T11:55:35.508Z,90496.00
2019-05-19T11:56:35.479Z,96896.00
2019-05-19T11:57:35.473Z,98656.00
2019-05-19T11:58:35.457Z,90880.00
2019-05-19T11:59:35.445Z,78624.00
2019-05-19T12:00:35.458Z,53504.00
2019-05-19T12:01:35.428Z,51200.00
2019-05-19T12:02:35.417Z,55872.00
2019-05-19T12:03:35.462Z,69824.00
2019-05-19T12:04:35.403Z,77856.00
2019-05-19T12:05:35.474Z,79360.00
2019-05-19T12:06:39.479Z,84800.00
2019-05-19T12:07:35.379Z,78656.00
2019-05-19T12:08:35.356Z,71936.00
2019-05-19T12:09:35.400Z,105312.00
2019-05-19T12:10:35.355Z,107008.00
2019-05-19T12:11:35.328Z,90816.00